Informationen zur Loipe auf der Atzenberger Höhe
 
Bodensee (Kressbronn): 3,9°C  -  Teich der Wetterzentrale Bad Schussenried: 2,2°C  
17.01.2021Höhe
ü. NN
ZeitTemperatur (°C)Nieder-
schlag
Luft-
feuchte
Luft-
druck
Wind
StationaktuellMinimumMaximumaktuellMaximum
Aldingen654 m00:01-4,8-4,8 (01:02)-4,8 (11:22)0,0 l/m²92%1021,816,7 km/h (3 Bft) O16,7 km/h (3 Bft) O-SO (00:01)
Allmendingen541 m00:00-4,6-4,6 (21:30)-4,6 (13:25)0,0 l/m²91%1021,114,5 km/h (3 Bft) SW22,5 km/h (4 Bft) W-SW (16:50)
Amstetten-Reutti663 m00:00-6,1-6,1 (21:15)-6,1 (12:50)0,0 l/m²94%1020,912,9 km/h (3 Bft) S-SO27,4 km/h (4 Bft) W-SW (13:50)
Bachhagel489 m00:02-4,9-4,9 (00:00)-4,9 (00:00)0,0 l/m²90%1024,914,4 km/h (3 Bft) W-SW6,5 km/h (2 Bft) SW (00:00)
Bad Krozingen233 m00:00-1,1-1,1 (04:30)-1,1 (00:00)0,0 l/m²96%1021,80,0 km/h (0 Bft) S-SW0,0 km/h (0 Bft) W (00:00)
Bad Krozingen-Tunsel229 m00:00-1,2-1,2 (04:10)-1,2 (23:30)0,0 l/m²92%1018,60,0 km/h (0 Bft) W0,0 km/h (0 Bft) W-NW (01:00)
Bad Saulgau595 m00:00-4,0-4,0 (01:00)-4,0 (12:05)0,0 l/m²93%1020,64,8 km/h (1 Bft) SW14,5 km/h (3 Bft) W (18:35)
Bad Saulgau, Mannsgrab588 m00:01-4,1- (-)-4,1 (01:00)0,0 l/m²88%1023,211,2 km/h (2 Bft) S-SO7,9 km/h (2 Bft) N-NO (01:00)
Bad Saulgau, SFZ Kälberweide594 m00:00-3,9- (-)-3,9 (01:00)0,0 l/m²94%1023,00,0 km/h (0 Bft) W-NW0,0 km/h (0 Bft) N (01:00)
Bergatreute615 m00:00-3,9-3,9 (00:00)-3,9 (00:00)0,0 l/m²96%1020,38,0 km/h (2 Bft) S-SW8,0 km/h (2 Bft) S-SW (00:00)
Biberach (Riss), Boehringer533 m00:50-3,7-4,2 (00:00)-3,6 (00:50)0,0 l/m²92%1019,710,1 km/h (2 Bft) S-SW18,0 km/h (3 Bft) S-SO (00:40)
Biberach (Riss), Realschule553 m00:00-4,5-4,4 (00:00)-4,4 (00:00)0,0 l/m²94%1022,414,5 km/h (3 Bft) S14,5 km/h (3 Bft) S-SW (00:00)
Burgrieden523 m00:00-4,4-4,4 (00:00)-4,4 (00:00)0,0 l/m²88%1021,00,0 km/h (0 Bft) S-SW0,0 km/h (0 Bft) NO (00:00)
Ebersbach579 m00:00-4,2-4,1 (00:00)-4,1 (00:00)0,0 l/m²94%1023,00,0 km/h (0 Bft) S0,0 km/h (0 Bft) S-SW (00:00)
Ebersbach-Boos605 m00:00-4,8-4,8 (00:00)-4,8 (00:00)0,0 l/m²95%1022,50,0 km/h (0 Bft) SW0,0 km/h (0 Bft) SW (00:00)
Ebersbach-Menzenweiler661 m00:00-5,0-5,0 (00:00)-5,0 (00:00)0,0 l/m²98%1022,711,3 km/h (2 Bft) S11,3 km/h (2 Bft) S-SW (00:00)
Erlenmoos645 m00:00-4,1-4,1 (00:00)-4,1 (00:00)0,0 l/m²49%1021,517,7 km/h (3 Bft) SW17,7 km/h (3 Bft) SW (00:00)
Ertingen569 m00:00-4,3-4,3 (00:00)-4,3 (00:00)0,0 l/m²95%1021,60,0 km/h (0 Bft) SO0,0 km/h (0 Bft) S-SW (00:00)
Günzburg443 m00:00-3,9-3,9 (00:00)-3,9 (00:00)0,0 l/m²87%1018,68,0 km/h (2 Bft) W-SW8,0 km/h (2 Bft) W-SW (00:00)
Hochdorf-Appendorf537 m00:00-4,3-4,3 (00:00)-4,3 (00:00)0,0 l/m²72%1021,424,1 km/h (4 Bft) S24,1 km/h (4 Bft) S-SO (00:00)
Horgenzell618 m00:000,00,0 (00:00)0,0 (00:00)0,0 l/m²94%1015,116,1 km/h (3 Bft) S-SW16,1 km/h (3 Bft) S-SW (00:00)
Hoßkirch632 m00:00-4,4-4,4 (00:00)-4,4 (00:00)0,0 l/m²94%1020,912,9 km/h (3 Bft) S-SW12,9 km/h (3 Bft) S-SW (00:00)
Hüfingen682 m00:00-6,8- (-)-6,8 (01:00)0,0 l/m²97%1018,10,0 km/h (0 Bft) SW0,0 km/h (0 Bft) N (01:00)
Immendingen750 m00:03-6,3- (-)-6,3 (01:00)0,0 l/m²95%1,10,0 km/h (0 Bft) NW0,0 km/h (0 Bft) N (01:00)
Isny, Am Dreifingerbach695 m00:00-6,1-6,1 (00:00)-6,1 (00:00)0,0 l/m²94%1022,50,0 km/h (0 Bft) S-SW0,0 km/h (0 Bft) S-SW (00:00)
Isny, Weidachweg706 m00:00-6,1-6,1 (00:00)-6,1 (00:00)0,0 l/m²87%1024,80,0 km/h (0 Bft) O0,0 km/h (0 Bft) N (00:00)
Kappel-Grafenhausen163 m00:00-0,8- (-)-0,8 (01:00)0,0 l/m²94%1019,116,2 km/h (3 Bft) S13,0 km/h (3 Bft) S (00:00)
Kißlegg-Staibshof709 m00:00-5,4-5,4 (00:00)-5,4 (00:00)0,0 l/m²97%1022,58,0 km/h (2 Bft) SW8,0 km/h (2 Bft) SW (00:00)
Kressbronn398 m00:00-3,8-3,8 (00:00)-3,8 (00:00)0,0 l/m²92%1022,08,0 km/h (2 Bft) O-SO8,0 km/h (2 Bft) O-SO (00:00)
Laupheim500 m00:00-4,3-4,3 (00:00)-4,3 (00:00)0,0 l/m²88%1020,611,3 km/h (2 Bft) S-SW11,3 km/h (2 Bft) S-SW (00:00)
Leutkirch-Heggelbach670 m00:00-5,2-5,1 (00:00)-5,1 (00:00)0,0 l/m²94%1021,00,0 km/h (0 Bft) SW0,0 km/h (0 Bft) N (00:00)
Lindau-Insel420 m00:00-2,9-2,9 (01:00)-2,9 (13:30)0,0 l/m²88%1022,712,9 km/h (3 Bft) SO14,5 km/h (3 Bft) SW (23:15)
Lindau-Stadt412 m00:00-3,6-3,6 (01:00)-3,6 (12:05)0,0 l/m²90%1022,99,7 km/h (2 Bft) O14,5 km/h (3 Bft) O (23:20)
Maierhöfen im Allgäu733 m00:00-9,1-9,1 (00:00)-9,1 (00:00)0,2 l/m²92%1023,31,6 km/h (1 Bft) W-NW1,6 km/h (1 Bft) W-NW (00:00)
Maselheim543 m00:00-4,7-4,7 (00:00)-4,7 (00:00)0,0 l/m²91%1021,58,0 km/h (2 Bft) S-SW8,0 km/h (2 Bft) S-SO (00:00)
Maselheim-Sulmingen548 m00:00-4,6-4,6 (18:40)-4,6 (12:20)0,0 l/m²93%1022,812,9 km/h (3 Bft) S25,7 km/h (4 Bft) SW (20:30)
Mietingen-Baltringen528 m00:00-4,3-4,3 (00:00)-4,3 (00:00)0,0 l/m²88%1022,511,3 km/h (2 Bft) S-SW11,3 km/h (2 Bft) W-SW (00:00)
Mittelbiberach577 m00:00-4,8-4,8 (00:00)-4,8 (00:00)0,0 l/m²90%1022,60,0 km/h (0 Bft) SW0,0 km/h (0 Bft) SW (00:00)
Müllheim230 m00:00-1,3-1,3 (00:00)-1,3 (00:00)0,0 l/m²95%1020,00,0 km/h (0 Bft) NO0,0 km/h (0 Bft) NO (00:00)
Neresheim552 m00:00-5,6-5,6 (00:00)-5,6 (00:00)0,0 l/m²96%1050,010,4 km/h (2 Bft) S-SW10,4 km/h (2 Bft) S-SW (00:00)
Neuhausen am Rheinfall (CH)428 m00:02-2,2-2,2 (00:00)-2,2 (00:00)0,0 l/m²75%1019,50,0 km/h (0 Bft) W0,0 km/h (0 Bft) W (00:00)
Neukirch570 m00:00-4,4-4,4 (01:00)-4,4 (11:20)0,0 l/m²94%1022,711,3 km/h (2 Bft) SW16,1 km/h (3 Bft) S-SW (23:55)
Ochsenhausen, Birkenstraße583 m00:00-4,1-4,1 (20:20)-4,1 (12:25)0,0 l/m²87%1021,81,6 km/h (1 Bft) N1,6 km/h (1 Bft) N (01:00)
Ochsenhausen, Unt. Wiesen575 m00:00-4,3-4,2 (00:00)-4,2 (00:00)0,0 l/m²91%1022,916,1 km/h (3 Bft) SW16,1 km/h (3 Bft) W-SW (00:00)
Ostrach619 m00:00-3,2-3,2 (00:00)-3,2 (00:00)0,0 l/m²94%1020,211,3 km/h (2 Bft) S-SW11,3 km/h (2 Bft) S-SW (00:00)
Peißenberg590 m00:00-7,2-7,4 (23:11)-0,3 (14:56)0,2 l/m²88%1020,60,0 km/h (0 Bft) NW17,6 km/h (3 Bft) W (14:34)
Ravensburg, Goethestraße428 m00:00-3,2-3,2 (00:00)-3,2 (00:00)0,0 l/m²93%1021,612,9 km/h (3 Bft) S-SW12,9 km/h (3 Bft) S-SW (00:00)
Ravensburg, Springerstraße441 m00:00-2,4-2,4 (00:00)-2,4 (00:00)0,0 l/m²83%1020,22,7 km/h (1 Bft) NW2,7 km/h (1 Bft) NW (00:00)
Ravensburg-Weißenau426 m00:01-3,4-3,4 (00:00)-3,4 (00:00)0,0 l/m²94%1022,83,2 km/h (1 Bft) S-SW1,4 km/h (1 Bft) S-SW (00:00)
Ravensburg-Wernsreute511 m00:00-4,4-4,4 (01:00)-4,4 (10:55)0,0 l/m²94%1025,39,7 km/h (2 Bft) S14,5 km/h (3 Bft) S-SW (17:10)
Reichenbach an der Fils343 m00:00-2,4-2,4 (00:00)-2,4 (00:00)0,0 l/m²85%1022,63,2 km/h (1 Bft) W-SW3,2 km/h (1 Bft) W-SW (00:00)
Reinstetten559 m00:00-4,2-4,2 (00:00)-4,2 (00:00)0,0 l/m²92%1022,014,5 km/h (3 Bft) S14,5 km/h (3 Bft) S (00:00)
Riedlingen530 m00:00-4,2-4,2 (00:00)-4,2 (00:00)0,0 l/m²94%1021,612,9 km/h (3 Bft) S12,9 km/h (3 Bft) W (00:00)
Schemmerhofen520 m00:00-3,9-3,9 (00:00)-3,9 (00:00)0,0 l/m²93%1021,09,7 km/h (2 Bft) SW9,7 km/h (2 Bft) SW (00:00)
Schwörstadt304 m00:00-3,2- (-)-3,2 (01:00)0,0 l/m²94%1022,70,0 km/h (0 Bft) NO0,0 km/h (0 Bft) N (01:00)
Silbertal im Montafon (AT)884 m00:02-6,9-6,9 (00:00)-6,9 (00:00)0,0 l/m²84%1027,30,0 km/h (0 Bft) N-NW0,0 km/h (0 Bft) N-NW (00:00)
Tettnang-Unterwolfertsweiler480 m00:00-4,1-4,1 (01:00)-4,1 (13:46)0,0 l/m²93%1022,10,0 km/h (0 Bft) O12,9 km/h (3 Bft) SO (09:04)
Tuttlingen, Möhringer-Vorstadt711 m00:00-5,4-5,4 (01:00)-5,4 (11:40)0,0 l/m²93%1021,53,2 km/h (1 Bft) N-NW14,5 km/h (3 Bft) N-NW (14:00)
Ummendorf547 m00:00-4,2-4,2 (00:00)-4,2 (00:00)0,0 l/m²82%1022,417,7 km/h (3 Bft) SW17,7 km/h (3 Bft) SW (00:00)
Ummendorf-Fischbach558 m00:00-4,3-4,3 (00:00)-4,3 (00:00)0,0 l/m²81%1022,314,5 km/h (3 Bft) S-SW14,5 km/h (3 Bft) SW (00:00)
Waldburg, Truchsessenweg707 m00:00-4,9-4,9 (00:00)-4,9 (00:00)0,0 l/m²95%1021,98,0 km/h (2 Bft) N8,0 km/h (2 Bft) N (00:00)
Wangen, Hans-Schnitzer-Weg569 m00:01-4,6- (-)-4,6 (01:00)0,0 l/m²83%1021,63,2 km/h (1 Bft) S3,2 km/h (1 Bft) N (01:00)
Warthausen-Birkenhard581 m00:02-5,0-5,1 (00:00)-5,0 (00:00)0,0 l/m²93%1021,50,0 km/h (0 Bft) S0,0 km/h (0 Bft) S-SW (00:00)
Weingarten500 m00:00-3,2-3,2 (00:00)-3,2 (00:00)0,0 l/m²93%1022,04,8 km/h (1 Bft) S4,8 km/h (1 Bft) S (00:00)
Winterlingen785 m00:00-6,5-6,5 (00:00)-6,5 (00:00)0,1 l/m²93%1019,94,3 km/h (1 Bft) S4,3 km/h (1 Bft) S (00:00)

niederschlagsdatenbank | info | login - erfassung

Sollten Sie Interesse haben, an der Niederschlagsdatenbank teilzunehmen, finden Sie > hier < weitere Informationen.
Datum: . . Kalender
Anmerkung:0,0 = nicht messbarer Niederschlag
 -  = kein Niederschlag
 k  = kumulierter Niederschlag

< 01.12.201803.12.2018 >


Niederschlagswerte vom 02.12.2018    -    derzeit 131 Stationen

Die Niederschlagswerte des gewählten Tages lassen sich durch Klicken auf das Datum sortieren.
Die Angaben sind in l/m².

Station29.11.30.11.01.12.02.12.03.12.04.12.05.12.Bemerkung 02.12.
Achstetten Hauptstraße-------
Aichstetten Ulmenstraße 7-------
Aichstetten-Nestbaum Nestbaum-5,0-13,08,05,0-
Albbruck Bahnhofstraße-2,81,846,515,57,24,8
Ganzer Tag zeitweise kräftiger Regen +12°C Nachts Regen +9°C
Regen Bodennebel
Allmendingen Querqueviller Ring 6-3,22,52,78,11,3-
Regen Nieselregen
Amstetten-Reutti Gassenäcker 13-4,0-5,22,83,82,0
Regen
Aulendorf Steinenbacher Weg 33-4,81,04,25,95,03,8
Ablesung um 7 Uhr
Regen Nieselregen
Aulendorf-Blönried Heuweg 32---6,58,04,83,2
Bachhagel Meisenweg 3-------
Bad Buchau Hanfweiher 1---10,0 k10,02,03,0
Kumuliert
Bad Saulgau Walserweg-3,50,06,59,50,03,0
Regen
Bad Saulgau-Hochberg Lampertsweiler Straße 12-3,00,57,07,01,04,0
Bad Saulgau-Steinbronnen Forchenhain 6-------
Bad Schussenried Konradstraße-3,50,36,97,40,74,5
Regen
Bad Schussenried Lortzingstrasse-4,01,06,06,51,04,5
Regen
Bad Schussenried Klosterstraße-4,01,07,07,01,04,3
Regen
Bad Schussenried Theodor-Storm-Strasse-4,01,27,08,3--
Regen
Bad Schussenried-Hopferbach Unterer Öschweg 16/1-4,82,07,09,01,34,8
Regen
Bad Schussenried-Lufthütte Hauptgasse 17-------
Bad Schussenried-Sattenbeuren Ortsstraße 7-------
Bad Schussenried-Schwaigfurt Schwaigfurt 2-5,51,27,06,51,04,5
Bad Waldsee-Haisterkirch Zur Spitzenkapelle 1-3,50,312,010,05,53,5
+3,5/+8,7°C, Regenwetter bis 12:00 und ab 19:00, Nacht zum 03. milder [weiterlesen...]
Regen
Bad Wurzach-Seibranz Kimpflerhof 2 -4,51,016,09,05,53,0
Nieselregen
Bad Wurzach-Ziegelbach Ziegelbach-Greut 5-------
Baienfurt Untere Bergstrasse 7-5,0-15,012,010,03,0
Regen
Balzheim Hinterm Liess 190,54,01,56,06,02,03,5
Regen
Berg-Kleintobel Kleintobel-3,14,622,213,59,52,0
Regen
Biberach Amriswilstrasse-4,00,55,68,53,23,5
Regen
Biberach Strölinweg-4,51,05,010,55,53,0
Regen
Biberach Erlenweg-4,51,54,511,55,03,5
Regen Nieselregen
Biberach Neue Heimat 5-4,0-7,09,54,53,5
Regen
Biberach Mittelbergstraße 9-3,51,05,512,53,52,5
Regen
Biberach Auf dem Lindele-------
Biberach-Bergerhausen Löcherstr.1-4,01,55,010,55,03,0
Regen
Bierstetten Schloßbühl 6-6,00,48,09,00,33,0
Regen
Blaubeuren-Pappelau Sotzenhauserstr.7-4,01,05,07,04,03,0
Regen
Bonndorf Im Tännle 12-------
Bühlertal Wolfinstraße 160,52,05,018,020,07,0-
Regen
Dornstadt-Tomerdingen Maienweg 9-4,70,95,06,83,22,1
Dürnau Dorfäckerweg 5-4,61,06,010,01,83,0
Regen
Eberhardzell Lilienweg1,23,41,37,16,92,03,7
Regen
Ebersbach-Roßwälden Appenwiesen-4,9-5,74,92,92,9
Immer wieder Regen und windig.

5,8 bis 12,2 Grad
Regen
Ehingen Rosenstraße-2,52,92,95,51,61,8
Regen
Ehingen Zanderstraße---3,94,70,91,2
Regen
Ehingen Schlaufenbühl-3,20,36,26,52,11,2
Regen
Ehingen Schillerstraße-2,33,03,26,01,81,9
Regen Nieselregen
Ehingen-Herbertshofen Tobelweg 9-------
Eislingen Albstraße 125-4,20,910,88,41,22,9
Regen
Erbach-Bach Hauptstraße 240,83,52,03,46,51,01,8
Regen
Erlenmoos Haldenweg 150,22,71,25,17,95,93,8
Regen
Füramoos Hungersberg 10,7-0,05,58,21,40,0
Gutenzell Kleinser Berg 1-3,5-7,5 k10,04,53,0
Gutenzell-Hürbel Bei der Sägmühle 1-4,01,07,07,54,03,0
Regen
Herbertingen Drosselweg-4,50,25,511,51,02,0
Bei Temperaturen im Plusbereich über der 5 Grad Marke- Regen und bö [weiterlesen...]
Regen
Herbertingen Hirschstrasse-5,01,54,511,01,01,5
Regen
Hochdorf-Schweinhausen Lindenweg 2-10,22,1--18,93,8
Hohentengen-Bremen Bremer Halde 4-3,00,08,07,01,02,0
Regen
Holzheim-Ellerbach Kirchstraße 3-------
Horgenzell-Ringgenweiler Ringgenweiler 620-2,02,123,116,85,84,0
Regen
Hüttisheim Ulmer Weg 20,03,51,05,06,00,52,0
Regen
Illerkirchberg Mahdauweg 200,33,00,04,88,40,51,7
Illerrieden-Wangen Am Muckenberg 12-------
Immenstaad Stockwiesen 10-------
Inzigkofen Butzenweg 1-2,01,39,18,51,31,8
Regen
Isny Am Dreifingerbach 39-6,00,234,47,615,24,2
Regen
Kanzach Anna von Russegg-Weg-------
Kirchberg Rosenstr. 7-4,20,56,07,53,83,1
Regen
Kreuzthal-Steinberg-Alpe Im Kreuzbachthal 85-9,7-29,28,825,55,2
Regen
Langenau Wasserstr. 54-10,04,01,54,02,52,02,5
Langenau Narzissenweg 1-------
Langenau Edith-Stein-Straße    neu  -------
Langenenslingen Schattenweiler Str. 180,03,31,16,97,41,22,2
Regen Nieselregen
Leutkirch Unterer Auenweg 250,33,70,217,57,79,33,0
Regen
Leutkirch Nachtigallenweg 280,25,00,520,013,513,02,0
Leutkirch-Adrazhofen Bergstraße 20-4,00,520,010,019,53,0
Luzern Schönbühlring-------
Merklingen Millergasse 9-------
Mietingen Seerosenweg 10-------
Mietingen-Walpertshofen Bussenweg 31-2,0-5,012,02,03,0
Mittelbiberach-Reute Rindenmooser Straße 2-4,02,55,28,44,04,0
Regen
Moosburg Käserweg 5--5,04,510,23,82,0
Regnerisch, windig. Bei Temperaturen deutlich im Plusbereich.
Regen Nieselregen
Münsingen-Bremelau Teichackerhof 1-------
Münsingen-Rietheim In der Lise 20-5,00,25,24,45,62,2
Regen
Neresheim Alfred-Delp-Straße 8-3,60,67,721,21,6-
Regen
Oberboihingen Friedhofstraße-------
Oberdischingen Normannenstraße 7---9,8 k-6,82,1
Regen
Ochsenhausen Ehrensberger Weg 50,22,31,14,46,35,62,3
Regen
Öpfingen Hauptstraße 990,63,51,05,05,80,31,6
Regen
Ostrach Uhlandweg-2,51,04,513,54,57,5
Regen
Ostrach Schillerstraße 19-------
Ostrach Denkmalweg -------
Pfaffenhofen Lerchenweg 13-------
Pfaffenhofen-Kadeltshofen Mühlbachstraße 40,03,01,04,05,01,02,0
Pfullendorf Am Schweizersbild --2,210,510,95,11,6
Rangendingen Donaustraße 19-3,0-3,05,03,0-
Ravensburg Bleicherstraße-4,72,019,611,610,41,1
Ravensburg-Schmalegg St.-Magdalena-Ring 42-3,01,819,012,06,33,0
Ravensburg-Wernsreute Wernsreute 250,03,20,224,07,410,42,6
Regen
Ravensburg-Weststadt Karl-Erb-Ring 142-4,22,025,014,810,02,0
Regen
Regensburg Orleansstraße 3-------
Rheinfelden-Herten Eggbergstr. 10a-------
Riedhausen Blütenweg 13-1,41,415,013,04,82,4
Temp. +5,9°C / +9,2°C, Windböen SW 48,3 km/h
Regen
Riedlingen Berliner Str. 41-------
Riedlingen-Neufra Panoramaweg-3,02,02,0---
Regen Nieselregen
Riedlingen-Neufra Riedlinger Strasse-------
Ringschnait Gustav-Reich-Strasse 20-------
Schelklingen-Gundershofen Schwarzer-Straße 14-4,01,03,06,02,00,5
Temp. zw. -0,2°C und +8,9°C. Trüb, windig, Nieselregen.
Schemmerberg Drosselweg 9-4,52,06,58,02,03,5
Schlier-Hintermoos Bergweg-------
Schwörstadt Schulstrasse 19-3,81,030,615,63,05,4
Regen
Seekirch Haldenberg 7-------
Sigmaringendorf Weingartenstraße 7--2,36,87,80,61,9
Regen
Tuttlingen Möhringerstraße 11-0,4-7,07,01,40,4
Regen
Ulm Eberhardtstraße 75-------
Ulm-Eggingen Dorfstraße 36-------
Ummendorf Tulpenweg-4,5-7,5 k9,03,83,9
Regen Nieselregen
Uttenweiler-Ahlen Seekircher Straße 8-4,01,05,57,23,92,2
Regen
Vöhringen (Schwarzwald) Drosselweg 3-6,06,015,07,07,0-
Wald-Hohenzollern Steckeler Höfe-------
Waldburg Kastanienweg11--7,025,510,515,5-
Wangen-Atzenberg Keplerweg 3-------
Wangen-Bergerhöhe Berg 2-5,50,533,87,523,54,6
höchste Tagesmenge seit 15. Januar
Regen
Warthausen An der Schloßhalde -4,22,32,07,55,2-
Regen
Warthausen Schwabenwiesen 2,9--4,56,43,52,9
Regen
Warthausen-Barabein Barabein 20-4,02,06,06,54,54,0
Regen
Warthausen-Oberhöfen Panoramaweg -------
Weingarten Laurastraße0,24,00,516,07,017,01,5
+ 9,7 ° C um 6.30 Uhr
Regen Nieselregen
Weingarten Hoyerstraße-------
Weingarten Marienstraße0,05,00,521,512,510,01,5
Regen
Wolfegg-Veesers Veesers 1---27,0 k---
Wolpertswende Aulendorfer Str. 17-3,1-5,88,15,82,2
Regen

Stillgelegte Niederschlagsstationen    -    derzeit 51 Stationen

StationLetzte Meldung29.11.30.11.01.12.02.12.03.12.04.12.05.12.Bemerkung 02.12.
Allmannsweiler Eggatsweilerstr.2802.09.2014-------
Aulendorf-Rugetsweiler Erikaweg 325.07.2013-------
Aulendorf-Zollenreute Imterstraße 1209.02.2019-------
Bad Bellingen Rheinstraße 7613.11.2019-------
Bad Saulgau Willi-Burth-Straße19.09.2011-------
Bad Saulgau Eichendorffweg28.03.2013-------
Bad Saulgau Seewattenstraße 12815.01.2014-------
Bad Saulgau-Lampertsweiler Valentinstr. 2618.02.2015-------
Bad Schussenried-Steinhausen Drosselgasse 4/126.09.2012-------
Bad Waldsee-Haisterkirch Hittelkofer Straße 102.07.2020-------
Bad Waldsee-Michelwinnanden Michelberg 531.12.2014-------
Bad Waldsee-Osterhofen Hochwaldgasse 406.03.2015-------
Bad Waldsee-Steinach Hofraingasse 1510.11.2013-------
Bad Wurzach-Dietmanns Postweg 519.01.2019-------
Bad Wurzach-Haidgau Wengener Straße 507.10.2012-------
Bergatreute Bolanden 113.02.2012-------
Betzenweiler Offinger Straße 505.01.2017-------
Burgrieden Am Nonnenberg 328.10.2013-------
Burgrieden-Rot Schmiedgasse 518.09.2013-------
Dettingen a. d. Iller Schleifweg 431.10.2019-------
Eberhardzell Schillerstraße05.07.2010-------
Ehingen Am Elzengraben17.06.2016-------
Gammertingen Schillerstraße 2216.01.2016-------
Griesingen Blumenstraße 906.10.2015-------
Günzburg Erlenbadweg 34 1/231.12.2010-------
Hoßkirch Kirchstraße 805.01.2018-------
Ingoldingen-Grodt Ingoldinger Weg 1919.11.2016-------
Kisslegg Kirchmoosstraße02.05.2011-------
Krauchenwies-Hausen Rosenrain 123.11.2013-------
Kressbronn Irisstraße 410.03.2010-------
Leutkirch-Ottmannshofen Spitalriedstraße 527.07.2012-------
Leutkirch-Rotis Rotis 5/208.05.2016-------
Leutkirch-Wuchzenhofen Untere Kirchstraße 18/119.09.2016-------
Mietingen Hangweg 1530.12.2017-------
Mössingen-Bästenhardt Weissdornweg 721.07.2014-------
Ostrach Heiligenberger Straße19.08.2013-------
Pfullendorf Ringstraße 18.03.2012-------
Ravensburg Olgastraße30.10.2016-------
Seltmans Amselweg 2209.04.2013-------
Stuttgart-Bad Cannstatt Beuthener Str. 6703.02.2013-------
Stuttgart-Möhringen Glashütter Weg 1023.04.2017-------
Stuttgart-Rohr Hirschsprung 307.11.2012-------
Talheim Im Schecken 2121.08.2016-------
Tannheim Eggmannstr. 42 22.10.2017-------
Tettnang-Ramsbach Jahnstr. 24/126.03.2011-------
Tuttlingen-Möhringen Belchenstraße01.01.2015-------
Ummendorf Bergstraße23.10.2017-------
Ummendorf Friedrich-Schiller-Str.19.01.2020-9,00,25,05,04,0-
Regen
Vogt Mühlwies 1822.05.2015-------
Weingarten Bischof-Sproll-Straße30.06.2011-------
Wilhelmsdorf Riedhauser Straße 28.10.2012-------
Wilhelmsdorf Seefeld20.08.2013-------
Wurmlingen An der Steig 3014.10.2016-------
Die Niederschlagswerte des gewählten Tages lassen sich durch Klicken auf das Datum sortieren.
Die Angaben sind in l/m².

Wetterbeobachtungen Legende:

  • Regen
  • Nieselregen
  • Schneeregen
  • Schnee
  • Graupel
  • Eiskörner
  • Hagel
  • Bodennebel
  • Gewitter
  • Nebelnässe
  • Schneegriesel

Grafische Darstellung der Tagesniederschläge vom 02.12.2018

< 01.12.201803.12.2018 >Monats- und Jahresniederschlag


 
wetterstationen
wetterstationen
- derzeit 99 Stationen
niederschlagsdatenbank
wetterstationen
- kartographische Darstellung
niederschlagsdatenbank
niederschlagsstationen
- derzeit 131 Stationen
niederschlagsdatenbank
niederschlagsstationen
- kartographische Darstellung
 
 
Sa. 7.30 Uhr - So. 7.30 Uhr (MEZ)
1.Bonndorf
Im Tännle 12
3,0 l/m²
2.Ostrach
Denkmalweg
0,0 l/m²
 
So. 17.01.2021 - 7.30 Uhr (MEZ)
1.Bonndorf
Im Tännle 12
60 cm
 
  treffpunkt & service
--- Anzeigen --------------------------------
zugriffe:
insgesamt: 50.904.253
aktueller monat: 251.662
heute: 44
momentan online: 16
 
 
monatshöchstwert: 703.589
vorheriger monat: 372.581
gestern: 12.981
tageshöchstwert: 60.571
 
wetterwarte süd
 
konradstraße 3
info@wetterwarte-sued.com
roland roth
 
88427 bad schussenried